Time;durP1;ratioP1;P1;durP2;ratioP2;P2;SDS_P1;SDS_P2;PMS_P1;PMS_P2;Temp;Humidity;BMP_temperature;BMP_pressure;BME280_temperature;BME280_humidity;BME280_pressure;Samples;Min_cycle;Max_cycle;Signal;HPM_P1;HPM_P2
2022/03/13 00:00:25;;;;;;;19.50;11.57;;;;;;;-0.74;53.68;101662.69;4980989;28;20095;-80
2022/03/13 00:02:54;;;;;;;19.65;12.15;;;;;;;-0.65;52.83;101668.25;4996664;28;20042;-82
2022/03/13 00:05:21;;;;;;;19.27;11.83;;;;;;;-0.76;53.29;101667.78;4990839;28;20045;-82
2022/03/13 00:07:48;;;;;;;19.73;11.17;;;;;;;-0.89;53.15;101663.81;4956179;28;20096;-82
2022/03/13 00:10:17;;;;;;;17.80;11.40;;;;;;;-0.86;53.67;101663.06;4983562;28;20041;-80
2022/03/13 00:12:47;;;;;;;19.53;11.63;;;;;;;-0.97;54.04;101660.03;4996496;28;20050;-81
2022/03/13 00:15:16;;;;;;;21.43;12.47;;;;;;;-0.87;54.09;101659.56;4978122;28;20073;-80
2022/03/13 00:17:43;;;;;;;18.53;11.77;;;;;;;-0.82;52.84;101651.13;4977503;28;20056;-81
2022/03/13 00:20:11;;;;;;;21.47;11.53;;;;;;;-0.95;54.60;101650.59;4994371;28;20412;-80
2022/03/13 00:22:38;;;;;;;23.17;12.37;;;;;;;-0.82;55.35;101645.94;4984431;28;20074;-80
2022/03/13 00:25:08;;;;;;;21.23;11.50;;;;;;;-0.97;54.10;101648.75;4997391;28;20050;-80
2022/03/13 00:27:35;;;;;;;19.07;10.70;;;;;;;-1.02;53.76;101648.56;4976184;28;20501;-81
2022/03/13 00:30:04;;;;;;;20.37;11.90;;;;;;;-0.98;54.08;101645.28;4977653;28;20038;-81
2022/03/13 00:32:31;;;;;;;23.03;12.10;;;;;;;-1.13;54.86;101644.63;4987987;28;20485;-81
2022/03/13 00:34:59;;;;;;;20.83;12.07;;;;;;;-1.04;54.71;101644.13;4976893;28;20050;-79
2022/03/13 00:37:25;;;;;;;21.47;11.53;;;;;;;-1.06;53.62;101650.97;4963452;28;20041;-81
2022/03/13 00:39:54;;;;;;;21.70;12.17;;;;;;;-1.13;54.04;101647.22;4996845;28;20049;-80
2022/03/13 00:42:21;;;;;;;18.00;10.93;;;;;;;-1.23;54.66;101648.53;4977121;28;20092;-81
2022/03/13 00:44:49;;;;;;;18.97;10.57;;;;;;;-1.17;55.10;101653.13;4980844;28;20050;-81
2022/03/13 00:47:19;;;;;;;19.30;12.10;;;;;;;-1.21;55.28;101656.38;4978811;28;20049;-81
2022/03/13 00:49:47;;;;;;;21.93;12.07;;;;;;;-1.27;55.39;101653.50;4969908;28;20057;-82
2022/03/13 00:52:14;;;;;;;19.10;11.50;;;;;;;-1.34;54.91;101654.09;4974098;28;20038;-82
2022/03/13 00:54:40;;;;;;;20.90;12.47;;;;;;;-1.39;54.50;101650.41;4992859;28;20528;-78
2022/03/13 00:57:07;;;;;;;22.73;12.90;;;;;;;-1.41;54.50;101660.72;5004870;28;20038;-80
2022/03/13 00:59:34;;;;;;;20.93;11.43;;;;;;;-1.48;55.51;101656.97;4960748;28;20069;-81
2022/03/13 01:02:01;;;;;;;18.80;11.43;;;;;;;-1.42;54.93;101656.34;4979592;28;20648;-81
2022/03/13 01:04:28;;;;;;;23.03;11.80;;;;;;;-1.39;55.84;101663.38;5011570;28;20343;-81
2022/03/13 01:06:54;;;;;;;19.23;11.77;;;;;;;-1.48;56.42;101662.13;4996498;28;20076;-81
2022/03/13 01:09:21;;;;;;;21.00;10.57;;;;;;;-1.61;56.10;101658.94;5004419;28;20421;-80
2022/03/13 01:11:48;;;;;;;19.53;11.63;;;;;;;-1.70;56.00;101657.69;4971348;28;20095;-80
2022/03/13 01:14:16;;;;;;;17.30;11.37;;;;;;;-1.60;56.18;101660.69;4994308;28;20096;-82
2022/03/13 01:16:43;;;;;;;19.07;11.80;;;;;;;-1.66;56.86;101663.03;4978067;28;20063;-80
2022/03/13 01:19:10;;;;;;;16.40;10.63;;;;;;;-1.67;56.29;101664.75;4974255;28;20043;-81
2022/03/13 01:21:40;;;;;;;19.07;11.70;;;;;;;-1.75;56.31;101661.81;4983058;28;20100;-80
2022/03/13 01:24:10;;;;;;;21.33;11.27;;;;;;;-1.77;55.78;101663.41;4976837;28;20042;-81
2022/03/13 01:26:38;;;;;;;21.23;11.73;;;;;;;-1.82;56.71;101669.22;4981480;28;20049;-81
2022/03/13 01:29:07;;;;;;;19.43;10.60;;;;;;;-1.91;57.22;101667.09;4982126;28;20049;-79
2022/03/13 01:31:45;;;;;;;23.23;12.00;;;;;;;-1.77;56.20;101658.22;4984804;28;20049;-80
2022/03/13 01:34:45;;;;;;;19.53;12.43;;;;;;;-1.83;56.09;101657.97;4979522;28;20535;-81
2022/03/13 01:37:15;;;;;;;18.33;11.67;;;;;;;-1.90;56.45;101670.56;4995317;28;20034;-79
2022/03/13 01:39:42;;;;;;;19.97;11.37;;;;;;;-1.96;56.41;101667.69;4969250;28;20050;-79
2022/03/13 01:42:08;;;;;;;18.53;11.10;;;;;;;-1.98;56.73;101676.28;4989237;28;20662;-79
2022/03/13 01:44:35;;;;;;;24.57;12.97;;;;;;;-1.94;56.43;101669.53;4963459;28;20053;-81
2022/03/13 01:47:05;;;;;;;19.97;12.40;;;;;;;-1.94;56.85;101664.34;4966833;28;20058;-79
2022/03/13 01:49:31;;;;;;;22.93;11.57;;;;;;;-1.94;56.34;101666.94;4996252;28;20069;-78
2022/03/13 01:51:58;;;;;;;19.33;11.57;;;;;;;-1.97;56.74;101669.41;4982740;28;20042;-80
2022/03/13 01:54:26;;;;;;;24.00;12.17;;;;;;;-2.09;57.40;101663.66;4974431;28;20061;-79
2022/03/13 01:56:53;;;;;;;20.50;11.33;;;;;;;-2.07;57.71;101668.09;4996106;28;20493;-79
2022/03/13 01:59:20;;;;;;;23.40;12.60;;;;;;;-2.12;57.78;101660.91;4958255;28;20046;-80
2022/03/13 02:01:47;;;;;;;21.03;12.53;;;;;;;-2.25;58.88;101653.41;4974027;28;20454;-80
2022/03/13 02:04:16;;;;;;;20.90;11.43;;;;;;;-2.19;60.54;101651.06;5012171;28;20042;-80
2022/03/13 02:06:43;;;;;;;17.90;11.03;;;;;;;-2.27;59.73;101654.22;4981512;28;20497;-79
2022/03/13 02:09:12;;;;;;;18.37;11.03;;;;;;;-2.26;60.55;101652.53;4995868;28;20037;-80
2022/03/13 02:11:40;;;;;;;20.13;12.40;;;;;;;-2.39;60.61;101665.69;4958877;28;20046;-80
2022/03/13 02:14:11;;;;;;;19.67;10.97;;;;;;;-2.43;60.98;101663.78;4985065;28;20505;-79
2022/03/13 02:16:38;;;;;;;19.70;10.87;;;;;;;-2.38;59.83;101667.44;4994281;28;20100;-79
2022/03/13 02:19:07;;;;;;;21.17;12.57;;;;;;;-2.38;60.60;101667.44;4983338;28;20038;-77
2022/03/13 02:21:44;;;;;;;19.30;10.83;;;;;;;-2.55;62.21;101661.47;4975663;28;20046;-79
2022/03/13 02:24:20;;;;;;;20.53;11.33;;;;;;;-2.54;61.10;101658.06;4979300;28;20046;-79
2022/03/13 02:27:03;;;;;;;16.27;10.70;;;;;;;-2.63;61.18;101666.25;4994598;28;20046;-80
2022/03/13 02:29:30;;;;;;;18.83;11.33;;;;;;;-2.53;60.71;101659.84;4998770;28;20133;-78
2022/03/13 02:31:59;;;;;;;20.50;11.93;;;;;;;-2.52;61.49;101655.53;4978492;28;20053;-80
2022/03/13 02:34:26;;;;;;;21.47;10.97;;;;;;;-2.51;62.46;101660.81;4979568;28;20046;-78
2022/03/13 02:37:00;;;;;;;21.47;11.70;;;;;;;-2.55;62.06;101652.00;4994217;28;20076;-80
2022/03/13 02:39:28;;;;;;;22.13;11.82;;;;;;;-2.48;61.78;101641.97;4991023;28;20073;-79
2022/03/13 02:41:55;;;;;;;20.83;11.80;;;;;;;-2.64;62.37;101655.84;4971136;28;20052;-80
2022/03/13 02:44:21;;;;;;;24.67;13.33;;;;;;;-2.60;62.17;101648.31;4978586;28;20053;-80
2022/03/13 02:46:48;;;;;;;20.77;11.10;;;;;;;-2.59;62.46;101655.28;4985243;28;20041;-77
2022/03/13 02:49:18;;;;;;;23.27;12.33;;;;;;;-2.53;62.27;101648.59;4997642;28;20042;-80
2022/03/13 02:51:46;;;;;;;20.83;11.10;;;;;;;-2.62;61.94;101649.94;4982118;28;20041;-79
2022/03/13 02:54:15;;;;;;;18.20;11.03;;;;;;;-2.59;62.03;101649.22;4980461;28;20084;-79
2022/03/13 02:56:42;;;;;;;22.10;11.60;;;;;;;-2.66;61.88;101648.03;4980594;28;20038;-81
2022/03/13 02:59:12;;;;;;;23.37;12.07;;;;;;;-2.57;61.35;101650.16;4998697;28;20069;-79
2022/03/13 03:01:40;;;;;;;17.70;10.90;;;;;;;-2.68;62.22;101646.19;5004238;28;20046;-78
2022/03/13 03:04:07;;;;;;;19.97;11.83;;;;;;;-2.63;62.29;101648.16;4974377;28;20046;-80
2022/03/13 03:06:34;;;;;;;23.83;12.20;;;;;;;-2.65;62.17;101647.19;5014445;28;20041;-79
2022/03/13 03:09:02;;;;;;;19.33;11.73;;;;;;;-2.71;61.99;101646.91;4999458;28;20111;-78
2022/03/13 03:11:31;;;;;;;19.87;11.10;;;;;;;-2.68;61.74;101646.19;4982282;28;20038;-78
2022/03/13 03:13:57;;;;;;;18.73;10.53;;;;;;;-2.78;63.04;101646.50;4982185;28;20038;-79
2022/03/13 03:16:24;;;;;;;22.53;11.93;;;;;;;-2.60;61.96;101637.97;4999171;28;20100;-80
2022/03/13 03:18:51;;;;;;;23.03;12.47;;;;;;;-2.62;61.38;101643.88;4978900;28;20050;-79
2022/03/13 03:21:17;;;;;;;25.27;13.53;;;;;;;-2.69;62.09;101652.13;4979264;28;20049;-79
2022/03/13 03:23:44;;;;;;;22.30;11.97;;;;;;;-2.79;62.54;101655.09;5013394;28;20045;-80
2022/03/13 03:26:11;;;;;;;20.10;11.27;;;;;;;-2.75;61.33;101651.84;5014804;28;20046;-79
2022/03/13 03:28:37;;;;;;;18.80;10.70;;;;;;;-2.74;62.08;101644.16;4980934;28;20038;-78
2022/03/13 03:31:04;;;;;;;22.27;12.20;;;;;;;-2.81;64.41;101644.69;5000584;28;20035;-79
2022/03/13 03:33:31;;;;;;;16.80;10.27;;;;;;;-2.86;64.96;101649.66;4979576;28;20133;-79
2022/03/13 03:35:58;;;;;;;18.70;10.60;;;;;;;-2.76;65.46;101647.50;4990438;28;20046;-80
2022/03/13 03:38:24;;;;;;;23.57;12.13;;;;;;;-2.67;63.72;101641.06;4979011;28;20044;-81
2022/03/13 03:40:51;;;;;;;19.93;12.90;;;;;;;-2.74;64.22;101651.94;4965831;28;20038;-79
2022/03/13 03:43:18;;;;;;;20.20;11.33;;;;;;;-2.81;64.18;101643.78;5003090;28;20038;-79
2022/03/13 03:45:45;;;;;;;22.93;11.23;;;;;;;-2.61;64.41;101640.47;4992265;28;20575;-80
2022/03/13 03:48:12;;;;;;;21.93;11.83;;;;;;;-2.63;64.76;101636.94;4976047;28;20039;-78
2022/03/13 03:50:38;;;;;;;20.20;11.50;;;;;;;-2.72;63.84;101632.19;4963788;28;20046;-79
2022/03/13 03:53:05;;;;;;;22.00;11.37;;;;;;;-2.67;63.62;101637.59;4977675;28;20038;-80
2022/03/13 03:55:32;;;;;;;21.60;12.43;;;;;;;-2.72;65.16;101639.06;5002117;28;20038;-78
2022/03/13 03:57:58;;;;;;;21.43;11.43;;;;;;;-2.64;64.40;101637.75;4978430;28;20093;-79
2022/03/13 04:00:26;;;;;;;22.60;12.50;;;;;;;-2.63;63.89;101636.94;4977375;28;20038;-79
2022/03/13 04:02:54;;;;;;;18.00;11.67;;;;;;;-2.70;64.57;101629.69;4980632;28;20526;-80
2022/03/13 04:05:21;;;;;;;21.20;12.27;;;;;;;-2.79;64.57;101634.41;4977619;28;20434;-80
2022/03/13 04:07:47;;;;;;;18.07;10.77;;;;;;;-2.83;64.72;101642.03;4996932;28;20050;-80
2022/03/13 04:10:14;;;;;;;21.77;12.70;;;;;;;-2.74;63.88;101638.13;4977737;28;20046;-77
2022/03/13 04:12:41;;;;;;;19.90;11.47;;;;;;;-2.68;63.17;101639.31;4994946;28;20099;-78
2022/03/13 04:15:08;;;;;;;22.87;11.80;;;;;;;-2.75;63.75;101642.41;4991222;28;20137;-79
2022/03/13 04:17:35;;;;;;;22.03;11.87;;;;;;;-2.64;61.62;101635.16;4993502;28;20123;-78
2022/03/13 04:20:03;;;;;;;20.63;12.20;;;;;;;-2.65;64.03;101633.38;4997206;28;20045;-78
2022/03/13 04:22:30;;;;;;;25.27;13.77;;;;;;;-2.61;62.83;101631.03;4981036;28;20045;-78
2022/03/13 04:24:57;;;;;;;18.20;11.37;;;;;;;-2.45;60.37;101632.63;4971372;28;20046;-78
2022/03/13 04:27:24;;;;;;;22.77;12.10;;;;;;;-2.51;63.40;101632.34;4984522;28;20038;-78
2022/03/13 04:29:50;;;;;;;23.77;12.60;;;;;;;-2.65;63.13;101639.44;4975337;28;20796;-78
2022/03/13 04:32:22;;;;;;;31.93;16.30;;;;;;;-2.56;62.28;101639.00;4980802;28;20052;-78
2022/03/13 04:34:49;;;;;;;33.80;19.80;;;;;;;-2.65;63.99;101634.28;4993631;28;20038;-78
2022/03/13 04:37:17;;;;;;;36.03;19.90;;;;;;;-2.76;63.37;101630.28;4982824;28;20413;-78
2022/03/13 04:39:43;;;;;;;27.87;15.93;;;;;;;-2.78;63.21;101631.88;4994717;28;20138;-78
2022/03/13 04:42:10;;;;;;;19.43;12.33;;;;;;;-2.80;63.63;101640.38;4984273;28;20040;-77
2022/03/13 04:44:37;;;;;;;21.67;13.63;;;;;;;-2.84;63.16;101641.97;4967622;28;20049;-78
2022/03/13 04:47:04;;;;;;;22.77;11.90;;;;;;;-2.97;63.34;101635.28;4984700;28;20073;-82
2022/03/13 04:49:30;;;;;;;22.10;11.57;;;;;;;-2.93;62.90;101634.63;5007538;28;20042;-78
2022/03/13 04:51:57;;;;;;;25.57;12.80;;;;;;;-2.84;61.80;101635.09;4977138;28;20612;-77
2022/03/13 04:54:24;;;;;;;22.43;12.20;;;;;;;-2.87;62.99;101634.03;4982287;28;20042;-77
2022/03/13 04:56:51;;;;;;;24.77;12.23;;;;;;;-2.80;61.54;101633.53;5000240;28;20049;-78
2022/03/13 04:59:17;;;;;;;25.90;12.10;;;;;;;-2.87;61.46;101626.25;4988773;28;20042;-77
2022/03/13 05:01:44;;;;;;;23.57;12.10;;;;;;;-2.97;62.05;101634.38;4976048;28;20113;-77
2022/03/13 05:04:14;;;;;;;24.43;13.13;;;;;;;-2.85;62.98;101635.91;4951709;28;20101;-77
2022/03/13 05:06:43;;;;;;;24.67;12.90;;;;;;;-2.94;62.97;101634.56;4977012;28;20094;-77
2022/03/13 05:09:10;;;;;;;23.97;12.67;;;;;;;-3.05;62.47;101633.13;4978564;28;20037;-77
2022/03/13 05:11:38;;;;;;;20.57;12.73;;;;;;;-3.09;62.42;101637.25;4988831;28;20058;-78
2022/03/13 05:14:05;;;;;;;18.43;12.17;;;;;;;-3.13;63.32;101638.78;4974658;28;20049;-77
2022/03/13 05:16:31;;;;;;;21.23;12.37;;;;;;;-3.11;63.36;101638.88;4959314;28;20046;-76
2022/03/13 05:18:58;;;;;;;23.63;12.50;;;;;;;-3.17;63.19;101641.16;4994113;28;20039;-76
2022/03/13 05:21:25;;;;;;;22.80;12.60;;;;;;;-3.17;63.15;101636.88;4993367;28;20089;-77
2022/03/13 05:23:53;;;;;;;17.73;11.83;;;;;;;-3.05;62.92;101648.63;4958271;28;20093;-77
2022/03/13 05:26:20;;;;;;;20.93;12.37;;;;;;;-3.10;62.90;101653.59;4985982;28;20038;-79
2022/03/13 05:28:47;;;;;;;27.37;13.17;;;;;;;-3.04;62.49;101650.41;4997108;28;20049;-79
2022/03/13 05:31:13;;;;;;;21.70;11.70;;;;;;;-3.07;62.53;101655.44;4980226;28;20092;-78
2022/03/13 05:33:40;;;;;;;24.73;12.43;;;;;;;-3.02;61.88;101648.81;4993260;28;20584;-79
2022/03/13 05:36:07;;;;;;;22.00;12.83;;;;;;;-2.98;62.01;101651.59;4999219;28;20092;-79
2022/03/13 05:38:35;;;;;;;23.90;12.67;;;;;;;-3.01;62.81;101654.03;4965202;28;20050;-79
2022/03/13 05:41:02;;;;;;;25.83;13.43;;;;;;;-2.96;62.17;101662.91;4996635;28;20077;-79
2022/03/13 05:43:31;;;;;;;22.47;12.97;;;;;;;-2.88;63.03;101665.88;4996456;28;20132;-79
2022/03/13 05:45:58;;;;;;;21.73;12.67;;;;;;;-2.97;63.05;101668.88;4974023;28;20038;-79
2022/03/13 05:48:26;;;;;;;26.37;13.67;;;;;;;-2.86;61.59;101670.31;4995458;28;20049;-79
2022/03/13 05:50:52;;;;;;;25.57;13.00;;;;;;;-2.88;63.21;101666.75;4974397;28;20539;-78
2022/03/13 05:53:19;;;;;;;25.20;13.17;;;;;;;-2.92;63.23;101670.00;4961695;28;20092;-80
2022/03/13 05:55:46;;;;;;;23.83;12.27;;;;;;;-2.96;63.08;101668.06;4977305;28;20465;-78
2022/03/13 05:58:13;;;;;;;25.60;13.03;;;;;;;-2.92;62.41;101674.31;4978692;28;20041;-79
2022/03/13 06:00:40;;;;;;;22.60;12.17;;;;;;;-2.83;62.13;101672.16;4979416;28;20046;-79
2022/03/13 06:03:07;;;;;;;24.97;13.13;;;;;;;-2.81;61.92;101672.25;4980163;28;20096;-79
2022/03/13 06:05:35;;;;;;;25.10;13.00;;;;;;;-2.74;60.76;101674.31;4994167;28;20042;-79
2022/03/13 06:08:03;;;;;;;26.37;12.87;;;;;;;-2.84;62.32;101670.41;4979722;28;21282;-79
2022/03/13 06:10:29;;;;;;;25.83;13.13;;;;;;;-2.80;63.92;101671.41;4978527;28;20046;-79
2022/03/13 06:12:56;;;;;;;21.80;12.60;;;;;;;-2.79;62.38;101661.16;4978562;28;20132;-79
2022/03/13 06:15:23;;;;;;;23.73;13.10;;;;;;;-2.72;61.79;101671.00;4974821;28;20100;-79
2022/03/13 06:17:51;;;;;;;20.60;12.23;;;;;;;-2.84;62.25;101673.88;4976346;28;20042;-80
2022/03/13 06:20:18;;;;;;;25.70;13.57;;;;;;;-2.75;61.99;101669.97;4988365;28;20100;-79
2022/03/13 06:22:47;;;;;;;22.20;12.47;;;;;;;-2.71;60.78;101674.47;4994684;28;20493;-79
2022/03/13 06:25:14;;;;;;;26.20;14.07;;;;;;;-2.51;59.88;101684.09;4971348;28;20114;-80
2022/03/13 06:27:41;;;;;;;19.83;12.47;;;;;;;-2.44;60.01;101682.66;4988175;28;20386;-79
2022/03/13 06:30:14;;;;;;;25.53;13.17;;;;;;;-2.50;61.46;101678.09;4995424;28;20042;-79
2022/03/13 06:32:42;;;;;;;21.80;12.23;;;;;;;-2.52;60.26;101689.16;4975296;28;20061;-78
2022/03/13 06:35:10;;;;;;;53.33;27.70;;;;;;;-2.43;59.61;101687.06;4978455;28;20038;-78
2022/03/13 06:37:40;;;;;;;24.07;12.70;;;;;;;-2.40;59.03;101687.19;4977630;28;20049;-78
2022/03/13 06:40:14;;;;;;;27.70;13.17;;;;;;;-1.99;55.24;101683.97;4992195;28;20049;-78
2022/03/13 06:42:41;;;;;;;25.13;12.47;;;;;;;-1.97;57.33;101679.75;5002644;28;20061;-79
2022/03/13 06:45:10;;;;;;;29.13;16.40;;;;;;;-1.99;56.76;101687.47;5010039;28;20054;-80
2022/03/13 06:47:44;;;;;;;26.33;16.67;;;;;;;-2.03;57.38;101689.81;4976699;28;20065;-78
2022/03/13 06:50:13;;;;;;;24.33;16.23;;;;;;;-1.93;56.94;101694.63;4962830;28;20045;-79
2022/03/13 06:52:40;;;;;;;35.70;17.03;;;;;;;-1.82;56.90;101689.94;4971095;28;20042;-80
2022/03/13 06:55:07;;;;;;;31.83;15.03;;;;;;;-1.77;56.77;101701.38;4981314;28;20046;-80
2022/03/13 06:57:33;;;;;;;22.93;14.23;;;;;;;-1.50;54.22;101691.41;4997763;28;20038;-80
2022/03/13 07:00:01;;;;;;;25.20;13.67;;;;;;;-1.53;55.26;101692.13;5004055;28;20147;-80
2022/03/13 07:02:27;;;;;;;24.50;14.00;;;;;;;-1.17;53.25;101677.34;5011960;28;20054;-79
2022/03/13 07:04:54;;;;;;;19.83;12.77;;;;;;;-1.09;53.97;101684.53;4980572;28;20076;-79
2022/03/13 07:07:21;;;;;;;21.57;11.93;;;;;;;-1.19;53.57;101685.84;5001795;28;20452;-80
2022/03/13 07:09:49;;;;;;;24.00;12.57;;;;;;;-1.08;54.13;101684.63;4978285;28;20035;-80
2022/03/13 07:12:16;;;;;;;28.57;13.20;;;;;;;-1.08;55.42;101678.56;4979357;28;20045;-80
2022/03/13 07:14:45;;;;;;;24.03;13.53;;;;;;;-1.13;55.20;101674.03;4982736;28;20053;-80
2022/03/13 07:17:12;;;;;;;22.43;12.33;;;;;;;-1.05;55.72;101676.06;4979297;28;20616;-79
2022/03/13 07:19:40;;;;;;;29.83;13.50;;;;;;;-0.52;52.44;101682.59;4977950;28;20045;-80
2022/03/13 07:22:09;;;;;;;23.67;13.37;;;;;;;-0.41;52.35;101673.56;4994684;28;20045;-80
2022/03/13 07:24:36;;;;;;;24.17;13.00;;;;;;;-0.35;53.00;101679.88;4988621;28;20507;-79
2022/03/13 07:27:03;;;;;;;25.87;13.77;;;;;;;-0.05;53.60;101674.13;4984840;28;20502;-81
2022/03/13 07:29:30;;;;;;;24.13;12.63;;;;;;;0.12;51.09;101672.16;4986217;28;20042;-81
2022/03/13 07:31:56;;;;;;;21.63;12.20;;;;;;;0.43;48.88;101661.22;5009884;28;20042;-81
2022/03/13 07:34:24;;;;;;;22.53;13.23;;;;;;;0.64;46.25;101669.78;4988585;28;20042;-82
2022/03/13 07:36:53;;;;;;;26.23;14.30;;;;;;;0.95;47.29;101668.25;4971131;28;20053;-81
2022/03/13 07:39:21;;;;;;;22.07;12.67;;;;;;;1.03;47.55;101667.69;4987562;28;20449;-82
2022/03/13 07:41:48;;;;;;;22.00;12.47;;;;;;;1.11;49.26;101660.16;4986920;28;20034;-82
2022/03/13 07:44:15;;;;;;;21.97;12.33;;;;;;;1.25;47.47;101655.38;4986774;28;20057;-81
2022/03/13 07:46:42;;;;;;;20.87;13.27;;;;;;;1.38;46.95;101650.66;4982742;28;20100;-81
2022/03/13 07:49:09;;;;;;;24.10;12.67;;;;;;;1.63;43.46;101648.81;4992262;28;20060;-81
2022/03/13 07:51:36;;;;;;;19.60;12.07;;;;;;;1.80;44.67;101652.84;4979269;28;20402;-81
2022/03/13 07:54:03;;;;;;;22.30;11.57;;;;;;;1.92;44.80;101647.13;4993581;28;20045;-81
2022/03/13 07:56:30;;;;;;;20.40;12.13;;;;;;;1.98;44.14;101648.19;4964282;28;20375;-82
2022/03/13 07:58:56;;;;;;;21.43;11.17;;;;;;;1.97;44.76;101658.56;4964324;28;20045;-82
2022/03/13 08:01:23;;;;;;;20.97;12.27;;;;;;;2.30;41.06;101650.00;4979309;28;20054;-82
2022/03/13 08:03:51;;;;;;;21.17;11.67;;;;;;;2.42;40.65;101642.50;5003698;28;20106;-79
2022/03/13 08:06:18;;;;;;;16.83;10.67;;;;;;;2.51;41.18;101643.63;5014984;28;20061;-80
2022/03/13 08:08:45;;;;;;;22.90;12.13;;;;;;;2.54;39.99;101642.88;5002463;28;20050;-81
2022/03/13 08:11:11;;;;;;;21.13;11.40;;;;;;;2.59;40.69;101642.97;4982676;28;20050;-80
2022/03/13 08:13:38;;;;;;;20.87;12.23;;;;;;;2.43;42.23;101649.47;4994150;28;20043;-79
2022/03/13 08:16:05;;;;;;;21.83;10.97;;;;;;;2.81;40.90;101647.94;4983146;28;20070;-81
2022/03/13 08:18:32;;;;;;;20.67;12.33;;;;;;;2.81;39.79;101651.44;4982280;28;20042;-82
2022/03/13 08:20:58;;;;;;;22.60;12.83;;;;;;;2.87;40.00;101650.72;4980873;28;20041;-79
2022/03/13 08:23:25;;;;;;;18.23;10.23;;;;;;;2.92;38.91;101641.28;4986288;28;20185;-81
2022/03/13 08:25:52;;;;;;;21.67;12.23;;;;;;;2.97;40.68;101650.13;4998076;28;20042;-78
2022/03/13 08:28:18;;;;;;;20.17;11.50;;;;;;;2.99;40.81;101658.88;4982698;28;20053;-78
2022/03/13 08:30:45;;;;;;;16.73;9.80;;;;;;;3.08;41.15;101658.22;4996521;28;20088;-80
2022/03/13 08:33:12;;;;;;;18.97;11.13;;;;;;;3.30;39.61;101652.72;4998620;28;20042;-78
2022/03/13 08:35:41;;;;;;;17.57;10.20;;;;;;;3.43;37.23;101653.00;5002904;28;20042;-81
2022/03/13 08:38:08;;;;;;;19.67;11.47;;;;;;;3.49;37.43;101655.78;4986652;28;20492;-81
2022/03/13 08:40:34;;;;;;;17.37;10.47;;;;;;;3.58;36.97;101653.38;4978890;28;20046;-80
2022/03/13 08:43:01;;;;;;;19.30;10.17;;;;;;;3.87;36.77;101654.06;4989119;28;20046;-80
2022/03/13 08:45:28;;;;;;;19.07;10.67;;;;;;;3.90;35.48;101657.63;4997882;28;20065;-80
2022/03/13 08:47:54;;;;;;;14.80;10.07;;;;;;;3.93;36.00;101648.97;4994684;28;20050;-79
2022/03/13 08:50:21;;;;;;;16.07;9.77;;;;;;;3.94;36.15;101654.22;4998334;28;20088;-80
2022/03/13 08:52:48;;;;;;;17.30;10.63;;;;;;;4.01;35.75;101652.63;4986821;28;20038;-80
2022/03/13 08:55:19;;;;;;;15.23;9.43;;;;;;;4.02;36.21;101653.50;4982960;28;20045;-79
2022/03/13 08:57:46;;;;;;;19.57;9.83;;;;;;;4.14;33.76;101644.22;4965118;28;20034;-79
2022/03/13 09:00:14;;;;;;;14.93;10.03;;;;;;;4.24;35.20;101647.91;4992499;28;20044;-80
2022/03/13 09:02:42;;;;;;;16.83;10.30;;;;;;;4.28;33.73;101651.44;4977422;28;20433;-79
2022/03/13 09:05:09;;;;;;;16.80;9.87;;;;;;;4.66;34.24;101647.00;4984312;28;20058;-78
2022/03/13 09:07:35;;;;;;;16.43;10.87;;;;;;;4.62;33.71;101653.03;4972508;28;20138;-80
2022/03/13 09:10:05;;;;;;;15.07;8.97;;;;;;;4.61;34.80;101656.50;4973230;28;20054;-79
2022/03/13 09:12:32;;;;;;;16.80;10.33;;;;;;;4.87;34.50;101654.38;4977917;28;20034;-80
2022/03/13 09:15:00;;;;;;;20.73;10.13;;;;;;;5.26;33.01;101644.63;4969344;28;20045;-80
2022/03/13 09:17:26;;;;;;;16.90;9.43;;;;;;;5.39;34.96;101648.34;4983011;28;20053;-82
2022/03/13 09:19:55;;;;;;;14.57;9.20;;;;;;;5.84;32.05;101645.53;4992087;28;20421;-81
2022/03/13 09:22:30;;;;;;;16.33;9.33;;;;;;;6.00;33.07;101645.78;4965146;28;20302;-82
2022/03/13 09:24:58;;;;;;;15.13;9.60;;;;;;;6.13;31.12;101650.31;4985882;28;20076;-81
2022/03/13 09:27:26;;;;;;;14.80;9.77;;;;;;;6.10;30.34;101648.56;5002101;28;20030;-81
2022/03/13 09:29:57;;;;;;;17.50;10.40;;;;;;;6.23;30.36;101646.13;4960706;28;20093;-81
2022/03/13 09:32:25;;;;;;;16.57;9.83;;;;;;;6.62;31.93;101648.31;5000204;28;20064;-81
2022/03/13 09:34:52;;;;;;;14.13;9.53;;;;;;;6.86;30.14;101653.84;5020547;28;20052;-82
2022/03/13 09:37:19;;;;;;;17.40;9.93;;;;;;;7.09;30.66;101646.19;5073926;23;20076;-79
2022/03/13 09:40:09;;;;;;;16.13;9.57;;;;;;;7.29;28.82;101647.25;4988911;28;20088;-79
2022/03/13 09:42:37;;;;;;;17.70;9.43;;;;;;;7.48;29.69;101636.88;4981702;28;20778;-78
2022/03/13 09:45:05;;;;;;;16.43;10.23;;;;;;;7.67;30.95;101630.03;4981874;28;20038;-79
2022/03/13 09:47:32;;;;;;;16.47;10.03;;;;;;;7.51;29.06;101632.56;4961974;28;20044;-78
2022/03/13 09:49:59;;;;;;;17.07;10.80;;;;;;;7.41;28.51;101635.97;4984429;28;20073;-79
2022/03/13 09:52:26;;;;;;;15.13;9.70;;;;;;;7.11;27.76;101639.22;4981592;28;20133;-78
2022/03/13 09:54:52;;;;;;;14.60;9.37;;;;;;;7.60;28.54;101640.50;4989361;28;20038;-78
2022/03/13 09:57:20;;;;;;;14.40;9.03;;;;;;;7.79;28.54;101630.09;4981113;28;20061;-78
2022/03/13 09:59:47;;;;;;;17.37;10.07;;;;;;;7.95;28.14;101631.97;4976408;28;20034;-78
2022/03/13 10:02:14;;;;;;;16.90;10.67;;;;;;;7.93;27.36;101632.84;4996033;28;20042;-79
2022/03/13 10:04:41;;;;;;;15.27;11.13;;;;;;;7.78;27.60;101615.19;4978931;28;20048;-78
2022/03/13 10:07:10;;;;;;;15.30;10.00;;;;;;;8.18;28.98;101621.56;4993526;28;20052;-79
2022/03/13 10:09:43;;;;;;;16.20;10.27;;;;;;;8.22;27.82;101625.94;5001673;28;20465;-79
2022/03/13 10:12:15;;;;;;;14.83;9.27;;;;;;;8.39;27.78;101615.53;4975891;28;20330;-78
2022/03/13 10:15:06;;;;;;;14.93;9.27;;;;;;;8.85;28.24;101616.56;4992824;28;20045;-79
2022/03/13 10:17:35;;;;;;;16.63;9.43;;;;;;;9.15;28.96;101614.81;4995315;28;20078;-79
2022/03/13 10:20:23;;;;;;;13.80;10.03;;;;;;;9.29;26.81;101610.44;4990363;28;20136;-79
2022/03/13 10:23:04;;;;;;;13.77;9.07;;;;;;;9.37;27.33;101608.69;4978534;28;20088;-79
2022/03/13 10:25:34;;;;;;;13.57;9.90;;;;;;;9.43;26.34;101603.41;5026414;28;20042;-79
2022/03/13 10:28:12;;;;;;;13.57;8.60;;;;;;;9.72;26.01;101598.06;4988694;28;20075;-79
2022/03/13 10:30:41;;;;;;;11.63;8.90;;;;;;;10.05;26.67;101599.75;5016544;28;20038;-79
2022/03/13 10:33:08;;;;;;;15.47;9.67;;;;;;;10.18;26.64;101591.81;5004732;28;20076;-79
2022/03/13 10:35:39;;;;;;;14.47;10.50;;;;;;;10.39;27.04;101600.53;5004590;28;20042;-78
2022/03/13 10:38:20;;;;;;;15.47;9.13;;;;;;;9.94;25.32;101592.75;4982177;28;20050;-78
2022/03/13 10:40:50;;;;;;;16.07;10.20;;;;;;;9.78;25.88;101600.72;4978487;28;20050;-78
2022/03/13 10:43:22;;;;;;;12.43;9.23;;;;;;;9.65;26.31;101592.81;5004799;28;20096;-79
2022/03/13 10:45:54;;;;;;;22.57;18.03;;;;;;;9.98;26.38;101590.09;4995198;28;20042;-79
2022/03/13 10:48:32;;;;;;;11.93;9.37;;;;;;;10.13;25.30;101578.59;4965448;28;20043;-79
2022/03/13 10:51:12;;;;;;;17.45;9.15;;;;;;;10.13;25.63;101592.69;4997510;28;20038;-79
2022/03/13 10:53:39;;;;;;;14.90;8.93;;;;;;;10.40;25.76;101581.16;4979427;28;20078;-78
2022/03/13 10:56:10;;;;;;;14.38;8.50;;;;;;;10.31;24.36;101582.97;4980642;28;20039;-79
2022/03/13 10:58:48;;;;;;;15.88;11.23;;;;;;;10.58;24.88;101572.22;4964898;28;20089;-78
2022/03/13 11:01:17;;;;;;;24.98;18.15;;;;;;;10.95;23.80;101579.94;4974207;28;20049;-79
2022/03/13 11:03:52;;;;;;;13.25;8.48;;;;;;;10.94;22.67;101581.72;4968671;28;20050;-78
2022/03/13 11:06:21;;;;;;;15.15;11.55;;;;;;;10.58;23.49;101568.72;4981791;28;20054;-79
2022/03/13 11:08:55;;;;;;;13.32;8.63;;;;;;;10.39;23.88;101589.09;4976911;28;20054;-79
2022/03/13 11:11:22;;;;;;;13.25;8.45;;;;;;;10.47;23.17;101570.56;4994393;28;20042;-77
2022/03/13 11:13:51;;;;;;;13.73;8.00;;;;;;;10.45;22.98;101567.06;4982026;28;20062;-78
2022/03/13 11:16:23;;;;;;;10.77;7.75;;;;;;;10.45;23.24;101567.06;4989518;28;20293;-80